Time;durP1;ratioP1;P1;durP2;ratioP2;P2;SDS_P1;SDS_P2;PMS_P1;PMS_P2;Temp;Humidity;BMP_temperature;BMP_pressure;BME280_temperature;BME280_humidity;BME280_pressure;Samples;Min_cycle;Max_cycle;Signal;HPM_P1;HPM_P2
2021/12/15 00:01:28;;;;;;;69.63;37.38;;;;;;;;;;5003735;28;20208;-61
2021/12/15 00:03:53;;;;;;;72.13;37.85;;;;;;;;;;4996535;28;20588;-60
2021/12/15 00:06:19;;;;;;;71.18;38.25;;;;;;;;;;4994876;28;20331;-60
2021/12/15 00:08:48;;;;;;;74.32;37.33;;;;;;;;;;4997743;28;20700;-61
2021/12/15 00:11:14;;;;;;;71.40;38.78;;;;;;;;;;5002652;28;20208;-61
2021/12/15 00:13:40;;;;;;;64.75;36.10;;;;;;;;;;5005067;28;20293;-60
2021/12/15 00:16:06;;;;;;;65.15;35.30;;;;;;;;;;5005069;28;20216;-61
2021/12/15 00:18:31;;;;;;;68.43;36.55;;;;;;;;;;5002638;28;20222;-60
2021/12/15 00:20:56;;;;;;;62.97;35.45;;;;;;;;;;5005286;28;20212;-60
2021/12/15 00:23:22;;;;;;;71.72;35.65;;;;;;;;;;5004237;28;20300;-60
2021/12/15 00:25:48;;;;;;;61.72;36.03;;;;;;;;;;4996812;28;20239;-60
2021/12/15 00:28:14;;;;;;;62.47;36.03;;;;;;;;;;4996096;28;20331;-60
2021/12/15 00:30:39;;;;;;;68.22;36.60;;;;;;;;;;4994712;28;20307;-60
2021/12/15 00:33:06;;;;;;;61.80;35.88;;;;;;;;;;5004267;28;20307;-60
2021/12/15 00:35:31;;;;;;;61.28;34.75;;;;;;;;;;5004126;28;20227;-60
2021/12/15 00:37:57;;;;;;;61.13;35.25;;;;;;;;;;5002474;28;20200;-60
2021/12/15 00:40:22;;;;;;;62.80;35.40;;;;;;;;;;4987648;28;20196;-61
2021/12/15 00:42:48;;;;;;;66.28;35.78;;;;;;;;;;5004726;28;20767;-60
2021/12/15 00:45:14;;;;;;;61.47;35.67;;;;;;;;;;5003608;28;20216;-60
2021/12/15 00:47:39;;;;;;;62.83;35.35;;;;;;;;;;4998282;28;20218;-60
2021/12/15 00:50:06;;;;;;;58.88;35.28;;;;;;;;;;4991563;28;20458;-60
2021/12/15 00:52:32;;;;;;;62.85;35.70;;;;;;;;;;4995147;28;20633;-60
2021/12/15 00:54:58;;;;;;;71.15;36.70;;;;;;;;;;5002623;28;20204;-60
2021/12/15 00:57:23;;;;;;;58.08;34.65;;;;;;;;;;5002011;28;20219;-60
2021/12/15 00:59:48;;;;;;;67.38;36.15;;;;;;;;;;5003838;28;20560;-60
2021/12/15 01:02:13;;;;;;;57.22;33.72;;;;;;;;;;5003488;28;20209;-61
2021/12/15 01:04:39;;;;;;;69.00;37.05;;;;;;;;;;5002505;28;20213;-60
2021/12/15 01:07:05;;;;;;;63.97;36.22;;;;;;;;;;5003277;28;20267;-60
2021/12/15 01:09:39;;;;;;;62.25;35.88;;;;;;;;;;5000144;28;20806;-60
2021/12/15 01:12:19;;;;;;;60.47;35.03;;;;;;;;;;4995506;28;20529;-61
2021/12/15 01:20:23;;;;;;;58.85;35.40;;;;;;;;;;5002426;28;20331;-60
2021/12/15 01:22:49;;;;;;;64.95;36.15;;;;;;;;;;5004637;28;20216;-60
2021/12/15 01:25:15;;;;;;;62.08;36.13;;;;;;;;;;5004336;28;20312;-60
2021/12/15 01:27:41;;;;;;;70.07;37.25;;;;;;;;;;5003750;28;20263;-60
2021/12/15 01:30:07;;;;;;;58.85;34.85;;;;;;;;;;5004330;28;20217;-60
2021/12/15 01:32:32;;;;;;;62.72;36.03;;;;;;;;;;4997751;28;20317;-60
2021/12/15 01:34:57;;;;;;;67.35;36.70;;;;;;;;;;4995451;28;20521;-60
2021/12/15 01:37:23;;;;;;;63.45;37.55;;;;;;;;;;4995376;28;20703;-60
2021/12/15 01:39:53;;;;;;;63.63;37.55;;;;;;;;;;5002000;28;20248;-60
2021/12/15 01:42:19;;;;;;;64.75;36.30;;;;;;;;;;5003544;28;20731;-60
2021/12/15 01:47:28;;;;;;;62.78;35.47;;;;;;;;;;5007691;28;20235;-60
2021/12/15 01:49:53;;;;;;;60.60;35.50;;;;;;;;;;5007025;28;20652;-60
2021/12/15 01:52:24;;;;;;;60.17;36.42;;;;;;;;;;5007546;28;20661;-60
2021/12/15 01:54:51;;;;;;;60.72;35.90;;;;;;;;;;5002835;28;20227;-60
2021/12/15 01:57:17;;;;;;;64.85;37.70;;;;;;;;;;4999007;28;20216;-60
2021/12/15 01:59:43;;;;;;;64.03;36.80;;;;;;;;;;4998015;28;20212;-60
2021/12/15 02:02:08;;;;;;;64.63;37.00;;;;;;;;;;5003887;28;20688;-60
2021/12/15 02:04:33;;;;;;;61.00;35.45;;;;;;;;;;5007451;28;20242;-60
2021/12/15 02:07:00;;;;;;;62.33;35.83;;;;;;;;;;5006224;28;20315;-60
2021/12/15 02:10:01;;;;;;;59.10;35.17;;;;;;;;;;5004761;28;20223;-60
2021/12/15 02:12:23;;;;;;;60.08;34.83;;;;;;;;;;5006799;28;20213;-60
2021/12/15 02:14:48;;;;;;;60.90;34.88;;;;;;;;;;5007628;28;20303;-60
2021/12/15 02:17:14;;;;;;;57.85;35.20;;;;;;;;;;4999938;28;20299;-60
2021/12/15 02:19:39;;;;;;;64.53;37.33;;;;;;;;;;4998743;28;20220;-60
2021/12/15 02:22:04;;;;;;;62.70;36.38;;;;;;;;;;4998170;28;20220;-60
2021/12/15 02:24:30;;;;;;;63.83;36.63;;;;;;;;;;5003295;28;20229;-60
2021/12/15 02:26:59;;;;;;;58.33;34.53;;;;;;;;;;5007367;28;20287;-60
2021/12/15 02:29:25;;;;;;;57.15;35.05;;;;;;;;;;5006980;28;20672;-60
2021/12/15 02:39:36;;;;;;;54.97;33.92;;;;;;;;;;5001178;28;20440;-60
2021/12/15 02:42:02;;;;;;;58.22;35.33;;;;;;;;;;4998309;28;20216;-60
2021/12/15 02:44:27;;;;;;;63.92;34.88;;;;;;;;;;4997706;28;20704;-60
2021/12/15 02:46:52;;;;;;;54.78;33.03;;;;;;;;;;5002995;28;20229;-60
2021/12/15 02:49:18;;;;;;;57.95;34.22;;;;;;;;;;5005709;28;20216;-60
2021/12/15 02:51:44;;;;;;;58.50;35.95;;;;;;;;;;5006291;28;20208;-60
2021/12/15 02:54:12;;;;;;;58.95;34.65;;;;;;;;;;5006347;28;20255;-60
2021/12/15 02:56:37;;;;;;;63.58;34.63;;;;;;;;;;5005606;28;20221;-60
2021/12/15 02:59:05;;;;;;;57.92;33.88;;;;;;;;;;5005629;28;20223;-60
2021/12/15 03:01:40;;;;;;;63.22;34.28;;;;;;;;;;5004089;28;20220;-60
2021/12/15 03:04:26;;;;;;;56.10;33.28;;;;;;;;;;4993682;28;20222;-61
2021/12/15 03:06:57;;;;;;;55.78;32.92;;;;;;;;;;4996106;28;20205;-60
2021/12/15 03:15:19;;;;;;;56.05;32.55;;;;;;;;;;5001734;28;20211;-60
2021/12/15 03:17:40;;;;;;;54.72;33.35;;;;;;;;;;5005840;28;20702;-60
2021/12/15 03:20:06;;;;;;;57.10;32.70;;;;;;;;;;5005034;28;20216;-60
2021/12/15 03:22:31;;;;;;;61.83;34.28;;;;;;;;;;5006259;28;20266;-60
2021/12/15 03:24:56;;;;;;;55.30;32.20;;;;;;;;;;5000508;28;20263;-60
2021/12/15 03:33:13;;;;;;;59.38;33.55;;;;;;;;;;4996063;28;20228;-60
2021/12/15 03:35:47;;;;;;;55.05;32.75;;;;;;;;;;5005122;28;20285;-60
2021/12/15 03:38:13;;;;;;;58.92;33.45;;;;;;;;;;5005302;28;20223;-60
2021/12/15 03:40:40;;;;;;;54.85;32.42;;;;;;;;;;5005320;28;20648;-60
2021/12/15 03:43:07;;;;;;;57.90;33.78;;;;;;;;;;5005551;28;20232;-60
2021/12/15 03:45:35;;;;;;;58.25;32.22;;;;;;;;;;5004229;28;20228;-60
2021/12/15 03:48:01;;;;;;;61.53;34.10;;;;;;;;;;4997143;28;20276;-60
2021/12/15 03:50:26;;;;;;;55.15;32.75;;;;;;;;;;4995696;28;20690;-61
2021/12/15 03:52:52;;;;;;;54.90;31.98;;;;;;;;;;4997260;28;20527;-60
2021/12/15 03:55:17;;;;;;;51.95;31.17;;;;;;;;;;5003959;28;20213;-60
2021/12/15 03:57:43;;;;;;;58.97;32.97;;;;;;;;;;5004088;28;20208;-60
2021/12/15 04:00:09;;;;;;;56.53;32.75;;;;;;;;;;5005338;28;20783;-60
2021/12/15 04:02:34;;;;;;;55.03;32.00;;;;;;;;;;5004767;28;20248;-60
2021/12/15 04:04:59;;;;;;;55.10;32.35;;;;;;;;;;5004934;28;20212;-60
2021/12/15 04:07:24;;;;;;;56.42;32.60;;;;;;;;;;5003409;28;20588;-60
2021/12/15 04:09:50;;;;;;;56.28;32.40;;;;;;;;;;4998759;28;20208;-60
2021/12/15 04:12:15;;;;;;;65.07;33.67;;;;;;;;;;4994929;28;20279;-60
2021/12/15 04:14:44;;;;;;;59.03;33.15;;;;;;;;;;4996964;28;20571;-60
2021/12/15 04:17:26;;;;;;;55.22;32.50;;;;;;;;;;5000161;28;20220;-60
2021/12/15 04:19:51;;;;;;;55.70;33.03;;;;;;;;;;5005366;28;20387;-60
2021/12/15 04:22:17;;;;;;;54.60;31.55;;;;;;;;;;5003509;28;20303;-60
2021/12/15 04:24:42;;;;;;;54.63;31.35;;;;;;;;;;5004427;28;20217;-60
2021/12/15 04:27:08;;;;;;;54.15;32.08;;;;;;;;;;5004451;28;20239;-60
2021/12/15 04:29:33;;;;;;;54.28;31.65;;;;;;;;;;5005092;28;20212;-60
2021/12/15 04:32:00;;;;;;;58.03;31.90;;;;;;;;;;5000230;28;20235;-60
2021/12/15 04:34:25;;;;;;;60.63;33.10;;;;;;;;;;4994974;28;20212;-60
2021/12/15 04:36:52;;;;;;;54.65;31.98;;;;;;;;;;4995764;28;20494;-60
2021/12/15 04:39:20;;;;;;;58.95;31.90;;;;;;;;;;5001270;28;20220;-60
2021/12/15 04:41:48;;;;;;;56.88;30.67;;;;;;;;;;5005365;28;20220;-60
2021/12/15 04:44:15;;;;;;;61.47;32.97;;;;;;;;;;5003991;28;20331;-60
2021/12/15 04:46:42;;;;;;;57.28;32.35;;;;;;;;;;5004806;28;20255;-60
2021/12/15 04:49:08;;;;;;;52.83;31.55;;;;;;;;;;5003099;28;20232;-60
2021/12/15 04:51:33;;;;;;;54.90;31.85;;;;;;;;;;5004037;28;20212;-60
2021/12/15 04:53:59;;;;;;;52.65;30.98;;;;;;;;;;5000545;28;20220;-60
2021/12/15 04:56:25;;;;;;;54.88;32.35;;;;;;;;;;4996527;28;20208;-59
2021/12/15 04:58:50;;;;;;;56.88;31.73;;;;;;;;;;4995172;28;20867;-60
2021/12/15 05:01:16;;;;;;;54.17;31.42;;;;;;;;;;4998919;28;20204;-60
2021/12/15 05:03:41;;;;;;;52.95;30.70;;;;;;;;;;5003529;28;20220;-60
2021/12/15 05:06:06;;;;;;;54.22;30.10;;;;;;;;;;5001777;28;20286;-61
2021/12/15 05:08:32;;;;;;;54.35;31.15;;;;;;;;;;5003966;28;20217;-60
2021/12/15 05:10:58;;;;;;;56.53;31.38;;;;;;;;;;5004162;28;20208;-60
2021/12/15 05:13:24;;;;;;;55.25;31.42;;;;;;;;;;5003102;28;20677;-60
2021/12/15 05:15:49;;;;;;;56.50;32.08;;;;;;;;;;5003205;28;20204;-60
2021/12/15 05:18:14;;;;;;;53.95;31.52;;;;;;;;;;4991883;28;20251;-60
2021/12/15 05:20:40;;;;;;;55.67;32.22;;;;;;;;;;4997356;28;20757;-60
2021/12/15 05:23:06;;;;;;;54.58;31.20;;;;;;;;;;4998167;28;20239;-60
2021/12/15 05:25:31;;;;;;;57.50;32.47;;;;;;;;;;5007665;28;20679;-60
2021/12/15 05:27:57;;;;;;;59.40;31.35;;;;;;;;;;5006947;28;20680;-60
2021/12/15 05:30:22;;;;;;;63.33;34.28;;;;;;;;;;5007070;28;20266;-60
2021/12/15 05:32:47;;;;;;;56.33;32.17;;;;;;;;;;5005757;28;20208;-60
2021/12/15 05:35:20;;;;;;;56.85;32.15;;;;;;;;;;5006399;28;20213;-60
2021/12/15 05:37:45;;;;;;;56.25;31.90;;;;;;;;;;5007741;28;20208;-60
2021/12/15 05:40:10;;;;;;;57.05;32.80;;;;;;;;;;4999836;28;20263;-60
2021/12/15 05:42:36;;;;;;;61.13;34.15;;;;;;;;;;4998914;28;20220;-60
2021/12/15 05:45:01;;;;;;;57.65;32.45;;;;;;;;;;4998266;28;20216;-61
2021/12/15 05:47:26;;;;;;;57.22;32.20;;;;;;;;;;5003175;28;20719;-60
2021/12/15 05:49:52;;;;;;;61.17;33.30;;;;;;;;;;5007225;28;20208;-60
2021/12/15 05:52:17;;;;;;;58.72;32.72;;;;;;;;;;5007168;28;20205;-60
2021/12/15 05:54:42;;;;;;;59.42;32.22;;;;;;;;;;5006837;28;20589;-60
2021/12/15 05:57:08;;;;;;;60.70;33.55;;;;;;;;;;5005435;28;20212;-60
2021/12/15 05:59:33;;;;;;;58.90;34.08;;;;;;;;;;5007107;28;20274;-60
2021/12/15 06:01:59;;;;;;;57.83;33.53;;;;;;;;;;5002073;28;20568;-60
2021/12/15 06:04:24;;;;;;;63.20;33.22;;;;;;;;;;4998317;28;20209;-60
2021/12/15 06:06:49;;;;;;;57.28;32.22;;;;;;;;;;4998328;28;20258;-60
2021/12/15 06:09:14;;;;;;;53.83;32.55;;;;;;;;;;5002604;28;20576;-60
2021/12/15 06:11:40;;;;;;;56.42;34.03;;;;;;;;;;5006756;28;20240;-60
2021/12/15 06:14:05;;;;;;;62.05;33.60;;;;;;;;;;5006427;28;20263;-60
2021/12/15 06:16:31;;;;;;;62.20;33.55;;;;;;;;;;5004596;28;20216;-60
2021/12/15 06:18:56;;;;;;;59.80;33.30;;;;;;;;;;5005355;28;20231;-60
2021/12/15 06:21:21;;;;;;;63.97;34.35;;;;;;;;;;5006205;28;20216;-60
2021/12/15 06:23:48;;;;;;;64.10;34.92;;;;;;;;;;5002285;28;20212;-60
2021/12/15 06:26:13;;;;;;;65.25;34.00;;;;;;;;;;4998297;28;20359;-60
2021/12/15 06:28:38;;;;;;;61.78;35.08;;;;;;;;;;4998156;28;20696;-60
2021/12/15 06:31:06;;;;;;;64.95;35.00;;;;;;;;;;4999895;28;20204;-61
2021/12/15 06:33:31;;;;;;;60.92;35.17;;;;;;;;;;5005819;28;20625;-60
2021/12/15 06:35:59;;;;;;;66.45;34.83;;;;;;;;;;5006715;28;20207;-60
2021/12/15 06:38:25;;;;;;;58.67;33.67;;;;;;;;;;5005224;28;20216;-60
2021/12/15 06:40:50;;;;;;;65.45;35.08;;;;;;;;;;5006791;28;20224;-60
2021/12/15 06:43:16;;;;;;;63.72;35.42;;;;;;;;;;5005449;28;20295;-60
2021/12/15 06:45:57;;;;;;;66.50;36.55;;;;;;;;;;5005462;28;20278;-60
2021/12/15 06:57:28;;;;;;;59.60;34.45;;;;;;;;;;4997808;28;20224;-60
2021/12/15 06:59:32;;;;;;;62.63;33.97;;;;;;;;;;5007553;28;20223;-60
2021/12/15 07:01:58;;;;;;;67.07;35.15;;;;;;;;;;5012602;28;20599;-60
2021/12/15 07:04:23;;;;;;;66.60;35.90;;;;;;;;;;5004479;28;20296;-59
2021/12/15 07:06:49;;;;;;;62.40;34.58;;;;;;;;;;5013384;28;20231;-60
2021/12/15 07:09:14;;;;;;;60.55;33.35;;;;;;;;;;5013470;28;20223;-61
2021/12/15 07:11:40;;;;;;;64.70;39.77;;;;;;;;;;5010856;28;20431;-60
2021/12/15 07:14:06;;;;;;;57.58;35.35;;;;;;;;;;5011155;28;20221;-61
2021/12/15 07:16:33;;;;;;;61.60;34.85;;;;;;;;;;4994041;28;20219;-59
2021/12/15 07:19:08;;;;;;;60.80;34.30;;;;;;;;;;4992591;28;20205;-59
2021/12/15 07:21:37;;;;;;;58.08;33.33;;;;;;;;;;5000031;28;20564;-59
2021/12/15 07:24:02;;;;;;;59.90;34.20;;;;;;;;;;5013403;28;20221;-60
2021/12/15 07:26:27;;;;;;;59.83;33.40;;;;;;;;;;5013050;28;20219;-59
2021/12/15 07:28:53;;;;;;;59.45;34.20;;;;;;;;;;5013258;28;20231;-59
2021/12/15 07:31:18;;;;;;;61.70;33.92;;;;;;;;;;5013058;28;20646;-59
2021/12/15 07:33:43;;;;;;;62.20;32.67;;;;;;;;;;5012781;28;20259;-58
2021/12/15 07:36:09;;;;;;;61.33;33.30;;;;;;;;;;5011862;28;20204;-58
2021/12/15 07:38:41;;;;;;;63.50;34.47;;;;;;;;;;5013433;28;20213;-59
2021/12/15 07:41:07;;;;;;;66.53;34.38;;;;;;;;;;5011034;28;20208;-59
2021/12/15 07:43:32;;;;;;;65.05;33.10;;;;;;;;;;5012372;28;20212;-59
2021/12/15 07:45:58;;;;;;;65.80;34.60;;;;;;;;;;5011709;28;20219;-59
2021/12/15 07:48:24;;;;;;;70.13;35.00;;;;;;;;;;5008907;28;20275;-59
2021/12/15 07:50:50;;;;;;;65.85;34.20;;;;;;;;;;5013327;28;20212;-59
2021/12/15 07:53:16;;;;;;;68.82;33.72;;;;;;;;;;5010285;28;20225;-58
2021/12/15 07:55:41;;;;;;;72.57;34.60;;;;;;;;;;5003051;28;20256;-59
2021/12/15 07:58:07;;;;;;;64.72;32.80;;;;;;;;;;4993078;28;20216;-59
2021/12/15 08:00:32;;;;;;;74.85;34.15;;;;;;;;;;5004320;28;20231;-59
2021/12/15 08:02:57;;;;;;;68.13;34.88;;;;;;;;;;5011868;28;20727;-59
2021/12/15 08:05:23;;;;;;;68.40;33.25;;;;;;;;;;5006952;28;20208;-59
2021/12/15 08:07:48;;;;;;;71.22;34.85;;;;;;;;;;5001978;28;20244;-59
2021/12/15 08:10:13;;;;;;;74.75;34.78;;;;;;;;;;4992367;28;20223;-59
2021/12/15 08:12:39;;;;;;;80.28;35.40;;;;;;;;;;5006607;28;20226;-59
2021/12/15 08:15:06;;;;;;;70.55;34.33;;;;;;;;;;5008198;28;20771;-60
2021/12/15 08:17:31;;;;;;;75.50;34.97;;;;;;;;;;4999489;28;20224;-59
2021/12/15 08:19:56;;;;;;;76.80;34.80;;;;;;;;;;4998554;28;20217;-59
2021/12/15 08:22:22;;;;;;;77.57;35.65;;;;;;;;;;5003286;28;20208;-59
2021/12/15 08:24:47;;;;;;;77.38;35.20;;;;;;;;;;5003504;28;20232;-60
2021/12/15 08:27:12;;;;;;;81.05;36.15;;;;;;;;;;5000951;28;20232;-60
2021/12/15 08:29:38;;;;;;;74.40;34.20;;;;;;;;;;4990954;28;20300;-60
2021/12/15 08:32:03;;;;;;;73.45;34.55;;;;;;;;;;5003563;28;20216;-60
2021/12/15 08:34:28;;;;;;;83.20;34.42;;;;;;;;;;4992635;28;20213;-60
2021/12/15 08:36:54;;;;;;;80.15;35.25;;;;;;;;;;4992361;28;20209;-60
2021/12/15 08:39:20;;;;;;;80.03;35.17;;;;;;;;;;4992446;28;20213;-60
2021/12/15 08:41:46;;;;;;;81.38;35.22;;;;;;;;;;4992972;28;20767;-60
2021/12/15 08:44:11;;;;;;;89.35;37.45;;;;;;;;;;4991651;28;20229;-60
2021/12/15 08:46:39;;;;;;;79.70;36.42;;;;;;;;;;4992808;28;20217;-60
2021/12/15 08:49:05;;;;;;;82.97;36.05;;;;;;;;;;4992112;28;20303;-60
2021/12/15 08:51:30;;;;;;;77.53;36.17;;;;;;;;;;4993488;28;20260;-60
2021/12/15 08:54:14;;;;;;;89.57;37.03;;;;;;;;;;5012606;28;20278;-60
2021/12/15 08:56:39;;;;;;;81.07;35.17;;;;;;;;;;5010039;28;20252;-59
2021/12/15 08:59:04;;;;;;;77.32;34.28;;;;;;;;;;5013894;28;20745;-60
2021/12/15 09:01:30;;;;;;;82.43;36.72;;;;;;;;;;5016190;28;20303;-60
2021/12/15 09:03:55;;;;;;;78.45;35.42;;;;;;;;;;5014354;28;20212;-60
2021/12/15 09:06:20;;;;;;;80.93;35.80;;;;;;;;;;5014323;28;20306;-59
2021/12/15 09:08:46;;;;;;;78.65;35.80;;;;;;;;;;5008210;28;20352;-60
2021/12/15 09:11:13;;;;;;;83.13;35.08;;;;;;;;;;4994252;28;20216;-60
2021/12/15 09:13:38;;;;;;;82.88;35.95;;;;;;;;;;5015289;28;20262;-60
2021/12/15 09:16:05;;;;;;;82.55;36.97;;;;;;;;;;5015477;28;20216;-60
2021/12/15 09:18:30;;;;;;;76.35;35.40;;;;;;;;;;5013739;28;20551;-60
2021/12/15 09:20:56;;;;;;;80.32;35.83;;;;;;;;;;5015591;28;20247;-60
2021/12/15 09:23:21;;;;;;;81.68;36.80;;;;;;;;;;5014425;28;20204;-60
2021/12/15 09:25:47;;;;;;;78.55;35.95;;;;;;;;;;5015430;28;20213;-59
2021/12/15 09:28:12;;;;;;;74.32;35.00;;;;;;;;;;5015285;28;20624;-60
2021/12/15 09:30:43;;;;;;;94.95;39.92;;;;;;;;;;5014418;28;20209;-60
2021/12/15 09:33:10;;;;;;;85.97;36.90;;;;;;;;;;5012688;28;20212;-60
2021/12/15 09:35:35;;;;;;;79.70;35.47;;;;;;;;;;5004859;28;20213;-60
2021/12/15 09:38:01;;;;;;;82.75;36.25;;;;;;;;;;4995837;28;20308;-60
2021/12/15 09:40:26;;;;;;;77.80;35.47;;;;;;;;;;4995347;28;20236;-60
2021/12/15 09:42:51;;;;;;;84.00;35.75;;;;;;;;;;4996054;28;20224;-60
2021/12/15 09:45:29;;;;;;;83.80;36.35;;;;;;;;;;4994117;28;20347;-60
2021/12/15 10:04:31;;;;;;;84.80;36.88;;;;;;;;;;5013566;28;20572;-60
2021/12/15 10:07:19;;;;;;;84.75;36.17;;;;;;;;;;5014154;28;20215;-59
2021/12/15 10:17:26;;;;;;;85.57;36.88;;;;;;;;;;5009536;28;20311;-60
2021/12/15 10:18:12;;;;;;;81.28;37.05;;;;;;;;;;5007152;28;20286;-60
2021/12/15 10:20:37;;;;;;;87.63;37.35;;;;;;;;;;4997559;28;20209;-59
2021/12/15 10:23:04;;;;;;;80.10;37.58;;;;;;;;;;5010106;28;20208;-60
2021/12/15 10:25:30;;;;;;;81.85;36.97;;;;;;;;;;4997291;28;20278;-60
2021/12/15 10:28:02;;;;;;;76.55;37.13;;;;;;;;;;5009437;28;20220;-60
2021/12/15 10:30:30;;;;;;;79.03;37.20;;;;;;;;;;5013429;28;20664;-60
2021/12/15 10:32:57;;;;;;;78.10;36.63;;;;;;;;;;5014645;28;20223;-60
2021/12/15 10:35:25;;;;;;;77.85;36.80;;;;;;;;;;5012154;28;20219;-60
2021/12/15 10:38:07;;;;;;;75.35;37.92;;;;;;;;;;5003285;28;20701;-60
2021/12/15 10:40:32;;;;;;;81.10;37.08;;;;;;;;;;5006130;28;20255;-60
2021/12/15 10:43:01;;;;;;;75.38;37.20;;;;;;;;;;5001175;28;20252;-60
2021/12/15 10:45:32;;;;;;;74.40;36.35;;;;;;;;;;5009569;28;20291;-60
2021/12/15 10:47:57;;;;;;;75.97;37.17;;;;;;;;;;4992371;28;20233;-60
2021/12/15 10:50:22;;;;;;;78.43;36.47;;;;;;;;;;4994019;28;20302;-60
2021/12/15 10:52:49;;;;;;;76.38;37.90;;;;;;;;;;5008748;28;20303;-60
2021/12/15 10:55:14;;;;;;;71.97;35.78;;;;;;;;;;5013860;28;20262;-60
2021/12/15 10:57:44;;;;;;;72.93;36.22;;;;;;;;;;5008744;28;20208;-59
2021/12/15 11:00:10;;;;;;;73.53;36.88;;;;;;;;;;5000707;28;20244;-60
2021/12/15 11:02:35;;;;;;;75.43;35.92;;;;;;;;;;5004802;28;20661;-60
2021/12/15 11:05:21;;;;;;;71.93;36.88;;;;;;;;;;4993171;28;20217;-60
2021/12/15 11:07:49;;;;;;;69.95;36.22;;;;;;;;;;4994347;28;20229;-59
2021/12/15 11:10:16;;;;;;;70.97;36.47;;;;;;;;;;4976479;28;20743;-61
2021/12/15 11:12:42;;;;;;;69.38;36.83;;;;;;;;;;5005346;28;20467;-65
2021/12/15 11:15:08;;;;;;;69.95;36.47;;;;;;;;;;5004422;28;20693;-59
2021/12/15 11:17:34;;;;;;;71.10;37.65;;;;;;;;;;5003209;28;20220;-60
2021/12/15 11:20:01;;;;;;;65.45;36.88;;;;;;;;;;4996286;28;20811;-60
2021/12/15 11:22:31;;;;;;;65.80;35.03;;;;;;;;;;4997701;28;20209;-59
2021/12/15 11:24:56;;;;;;;64.65;35.50;;;;;;;;;;4996713;28;20825;-59
2021/12/15 11:27:22;;;;;;;61.40;35.00;;;;;;;;;;5003904;28;20224;-59
2021/12/15 11:29:47;;;;;;;60.53;36.13;;;;;;;;;;5005015;28;20558;-59
2021/12/15 11:32:31;;;;;;;65.65;34.75;;;;;;;;;;5004418;28;20613;-60
2021/12/15 11:35:04;;;;;;;63.25;35.45;;;;;;;;;;5004729;28;20224;-59
2021/12/15 11:37:43;;;;;;;60.72;35.40;;;;;;;;;;5005050;28;20213;-59
2021/12/15 11:40:09;;;;;;;60.05;35.97;;;;;;;;;;5003985;28;20684;-59
2021/12/15 11:42:39;;;;;;;60.25;34.70;;;;;;;;;;4996494;28;20292;-59
2021/12/15 11:45:05;;;;;;;58.60;33.80;;;;;;;;;;4996852;28;20286;-60
2021/12/15 11:47:33;;;;;;;57.72;34.80;;;;;;;;;;4993396;28;20227;-60
2021/12/15 11:50:04;;;;;;;60.03;36.80;;;;;;;;;;5003374;28;20242;-59
2021/12/15 11:52:35;;;;;;;56.20;34.92;;;;;;;;;;4997321;28;20208;-60
2021/12/15 11:55:01;;;;;;;53.17;33.33;;;;;;;;;;5003976;28;20216;-61
2021/12/15 11:57:27;;;;;;;53.30;34.22;;;;;;;;;;5004958;28;20294;-60
2021/12/15 11:59:53;;;;;;;56.50;34.92;;;;;;;;;;5004666;28;20583;-59
2021/12/15 12:02:19;;;;;;;55.67;34.70;;;;;;;;;;5004363;28;20220;-59
2021/12/15 12:04:46;;;;;;;55.85;33.70;;;;;;;;;;4994042;28;20617;-60
2021/12/15 12:07:12;;;;;;;56.95;34.28;;;;;;;;;;4994447;28;20247;-59
2021/12/15 12:09:38;;;;;;;53.20;33.80;;;;;;;;;;4994298;28;20235;-58
2021/12/15 12:12:04;;;;;;;58.58;34.85;;;;;;;;;;5002859;28;20650;-59
2021/12/15 12:14:39;;;;;;;54.40;34.88;;;;;;;;;;5002919;28;20282;-59
2021/12/15 12:17:12;;;;;;;51.05;32.60;;;;;;;;;;5004384;28;20577;-59
2021/12/15 12:19:39;;;;;;;53.10;33.55;;;;;;;;;;5004685;28;20303;-59
2021/12/15 12:22:04;;;;;;;48.30;31.92;;;;;;;;;;5003892;28;20286;-59
2021/12/15 12:24:33;;;;;;;50.30;32.38;;;;;;;;;;5004462;28;20220;-59
2021/12/15 12:26:59;;;;;;;49.47;31.90;;;;;;;;;;4999103;28;20991;-59
2021/12/15 12:29:24;;;;;;;48.60;32.22;;;;;;;;;;4992253;28;20216;-59
2021/12/15 12:31:49;;;;;;;52.88;32.60;;;;;;;;;;4994057;28;20225;-59
2021/12/15 12:34:15;;;;;;;48.95;32.70;;;;;;;;;;5000841;28;20204;-59
2021/12/15 12:36:40;;;;;;;47.85;32.03;;;;;;;;;;5002498;28;20256;-59
2021/12/15 12:39:07;;;;;;;47.53;31.52;;;;;;;;;;5001583;28;20302;-59
2021/12/15 12:41:37;;;;;;;50.92;32.47;;;;;;;;;;5004982;28;20231;-59
2021/12/15 12:44:03;;;;;;;52.00;33.25;;;;;;;;;;5003618;28;20228;-59
2021/12/15 12:46:41;;;;;;;49.33;32.85;;;;;;;;;;5001813;28;20230;-59
2021/12/15 12:49:37;;;;;;;47.55;32.85;;;;;;;;;;5000390;28;20326;-59
2021/12/15 12:58:01;;;;;;;45.55;31.15;;;;;;;;;;5000294;28;20574;-59
2021/12/15 13:00:31;;;;;;;44.20;29.65;;;;;;;;;;5004512;28;20217;-59
2021/12/15 13:03:01;;;;;;;41.63;28.58;;;;;;;;;;5003845;28;20620;-59
2021/12/15 13:05:29;;;;;;;44.38;29.88;;;;;;;;;;5001362;28;20216;-59
2021/12/15 13:07:55;;;;;;;41.47;28.88;;;;;;;;;;5001720;28;20231;-59
2021/12/15 13:10:21;;;;;;;41.17;28.20;;;;;;;;;;5002975;28;20358;-59
2021/12/15 13:12:47;;;;;;;40.22;28.85;;;;;;;;;;4997415;28;20608;-59
2021/12/15 13:15:18;;;;;;;42.13;29.55;;;;;;;;;;4996142;28;20212;-59
2021/12/15 13:17:59;;;;;;;38.70;27.63;;;;;;;;;;4993302;28;20229;-59
2021/12/15 13:20:26;;;;;;;44.33;30.85;;;;;;;;;;5001673;28;20563;-65
2021/12/15 13:23:28;;;;;;;45.22;29.08;;;;;;;;;;5003876;28;21130;-66
2021/12/15 13:28:46;;;;;;;38.72;26.98;;;;;;;;;;5001463;28;20699;-66
2021/12/15 13:31:15;;;;;;;38.60;27.20;;;;;;;;;;5002670;28;20239;-66
2021/12/15 13:33:49;;;;;;;37.63;25.75;;;;;;;;;;5001892;28;20263;-66
2021/12/15 13:36:19;;;;;;;33.90;23.58;;;;;;;;;;4995728;28;20741;-66
2021/12/15 13:38:45;;;;;;;36.88;26.08;;;;;;;;;;4992926;28;20224;-66
2021/12/15 13:41:20;;;;;;;35.83;24.90;;;;;;;;;;4997357;28;20228;-66
2021/12/15 13:43:47;;;;;;;32.60;22.73;;;;;;;;;;5007859;28;20263;-66
2021/12/15 13:46:28;;;;;;;35.53;23.42;;;;;;;;;;5005142;28;20303;-66
2021/12/15 13:48:54;;;;;;;31.70;21.52;;;;;;;;;;5005878;28;20331;-66
2021/12/15 13:51:38;;;;;;;27.60;20.45;;;;;;;;;;5007059;28;20252;-65
2021/12/15 13:54:04;;;;;;;30.05;20.65;;;;;;;;;;5005673;28;20716;-65
2021/12/15 13:56:44;;;;;;;27.85;20.45;;;;;;;;;;5001903;28;20255;-65
2021/12/15 13:59:29;;;;;;;30.40;18.42;;;;;;;;;;4996154;28;20213;-65
2021/12/15 14:02:13;;;;;;;30.00;17.83;;;;;;;;;;4996998;28;20810;-65
2021/12/15 14:04:39;;;;;;;24.65;17.15;;;;;;;;;;5002465;28;20220;-64
2021/12/15 14:07:23;;;;;;;30.95;17.48;;;;;;;;;;5005733;28;20221;-65
2021/12/15 14:09:49;;;;;;;27.73;18.30;;;;;;;;;;5006727;28;20228;-65
2021/12/15 14:12:14;;;;;;;25.58;17.20;;;;;;;;;;5005496;28;20624;-65
2021/12/15 14:14:44;;;;;;;26.00;16.98;;;;;;;;;;5004022;28;20690;-65
2021/12/15 14:17:09;;;;;;;23.50;16.05;;;;;;;;;;5000592;28;20722;-65
2021/12/15 14:19:36;;;;;;;27.00;17.23;;;;;;;;;;5004378;28;20216;-64
2021/12/15 14:22:07;;;;;;;24.17;15.18;;;;;;;;;;4995265;28;20221;-64
2021/12/15 14:24:32;;;;;;;24.02;15.60;;;;;;;;;;4992543;28;20718;-65
2021/12/15 14:26:58;;;;;;;21.50;14.75;;;;;;;;;;4994866;28;20204;-64
2021/12/15 14:29:24;;;;;;;25.00;15.02;;;;;;;;;;4997982;28;20228;-65
2021/12/15 14:31:50;;;;;;;21.05;14.73;;;;;;;;;;5004955;28;20216;-65
2021/12/15 14:34:18;;;;;;;21.20;14.52;;;;;;;;;;5006485;28;20223;-65
2021/12/15 14:36:46;;;;;;;19.50;13.73;;;;;;;;;;5005974;28;20243;-64
2021/12/15 14:39:12;;;;;;;25.38;15.50;;;;;;;;;;4996227;28;20220;-65
2021/12/15 14:41:38;;;;;;;20.55;13.48;;;;;;;;;;4990635;28;20315;-65
2021/12/15 14:44:06;;;;;;;23.00;15.95;;;;;;;;;;4993098;28;20233;-65
2021/12/15 14:46:33;;;;;;;20.48;14.25;;;;;;;;;;4998566;28;20923;-64
2021/12/15 14:49:03;;;;;;;24.42;15.15;;;;;;;;;;4997200;28;20570;-64
2021/12/15 14:51:29;;;;;;;22.77;13.27;;;;;;;;;;5001079;28;20247;-65
2021/12/15 14:53:55;;;;;;;19.75;12.50;;;;;;;;;;5005581;28;20216;-64
2021/12/15 14:56:20;;;;;;;22.33;12.90;;;;;;;;;;4999947;28;20219;-64
2021/12/15 14:58:51;;;;;;;21.75;13.13;;;;;;;;;;5004758;28;20212;-65
2021/12/15 15:01:16;;;;;;;18.92;12.45;;;;;;;;;;5004201;28;20204;-65
2021/12/15 15:03:55;;;;;;;17.02;12.20;;;;;;;;;;5003078;28;20562;-64
2021/12/15 15:06:24;;;;;;;18.77;11.95;;;;;;;;;;4998021;28;20224;-64
2021/12/15 15:08:50;;;;;;;17.80;12.18;;;;;;;;;;4997225;28;20229;-64
2021/12/15 15:11:16;;;;;;;18.30;11.63;;;;;;;;;;4996603;28;20278;-64
2021/12/15 15:13:49;;;;;;;20.10;11.88;;;;;;;;;;5005251;28;20212;-64
2021/12/15 15:16:14;;;;;;;18.60;10.82;;;;;;;;;;5005959;28;20299;-64
2021/12/15 15:18:43;;;;;;;18.02;11.05;;;;;;;;;;5010654;28;20292;-64
2021/12/15 15:21:11;;;;;;;17.98;10.80;;;;;;;;;;5013023;28;20212;-65
2021/12/15 15:23:38;;;;;;;18.02;11.55;;;;;;;;;;5010685;28;20217;-64
2021/12/15 15:26:03;;;;;;;18.23;11.35;;;;;;;;;;5010441;28;20213;-64